Pine Bush, New York
Current Conditions -  °F | °C
As of 10:54 PM on Wednesday 28 Jan 2015 (Local Time) from KMGJ Reporting Station
Clear Clear  
Wind Chill: -14°   Ceiling: Unl
Heat Index: -14°   Visibility: 10mi
Dew Point: -18°   Wind: 0mph
Humidity: 76%   Direction: NA
Pressure: 30.26"   Gusts: NA
Location:  41.61°N, 74.3°W
Report Text: KMGJ 290354Z AUTO 00000KT 10SM CLR M14/M18 A3026 RMK AO2 SLP254 T11441178 TSNO $
Loading
Personal Weather Stations






























Interactive Weather Map New forecast layout! Learn more

10-Day Weather Forecast

Advertisements
Track Severe Weather on mobile